createdAt,value
2022-09-15T00:00:50.194Z,16.03
2022-09-15T00:02:23.414Z,16.02
2022-09-15T00:03:56.661Z,16.01
2022-09-15T00:05:30.162Z,15.95
2022-09-15T00:07:02.475Z,15.97
2022-09-15T00:08:35.681Z,15.98
2022-09-15T00:10:10.398Z,16.00
2022-09-15T00:11:43.690Z,16.02
2022-09-15T00:13:16.358Z,16.05
2022-09-15T00:14:50.869Z,16.06
2022-09-15T00:16:25.986Z,16.09
2022-09-15T00:17:58.398Z,16.06
2022-09-15T00:19:31.662Z,16.06
2022-09-15T00:21:05.648Z,16.03
2022-09-15T00:22:39.281Z,16.00
2022-09-15T00:24:12.612Z,15.97
2022-09-15T00:25:46.715Z,15.94
2022-09-15T00:27:19.834Z,15.94
2022-09-15T00:28:52.833Z,15.89
2022-09-15T00:30:28.165Z,15.86
2022-09-15T00:32:01.402Z,15.84
2022-09-15T00:33:33.990Z,15.80
2022-09-15T00:35:07.762Z,15.79
2022-09-15T00:36:41.378Z,15.80
2022-09-15T00:38:15.828Z,15.79
2022-09-15T00:39:49.206Z,15.72
2022-09-15T00:41:24.304Z,15.70
2022-09-15T00:42:57.626Z,15.71
2022-09-15T00:44:55.026Z,15.69
2022-09-15T00:46:32.492Z,15.72
2022-09-15T00:48:07.877Z,15.70
2022-09-15T00:49:41.222Z,15.67
2022-09-15T00:51:17.884Z,15.67
2022-09-15T00:52:56.999Z,15.63
2022-09-15T00:54:39.223Z,15.63
2022-09-15T00:56:14.663Z,15.65
2022-09-15T00:57:54.762Z,15.65
2022-09-15T00:59:31.339Z,15.66
2022-09-15T01:01:08.336Z,15.68
2022-09-15T01:02:44.637Z,15.70
2022-09-15T01:04:17.623Z,15.71
2022-09-15T01:05:56.830Z,15.77
2022-09-15T01:07:36.550Z,15.75
2022-09-15T01:09:15.615Z,15.71
2022-09-15T01:10:47.809Z,15.67
2022-09-15T01:12:22.591Z,15.62
2022-09-15T01:13:55.939Z,15.54
2022-09-15T01:15:38.851Z,15.52
2022-09-15T01:17:19.267Z,15.53
2022-09-15T01:19:02.391Z,15.54
2022-09-15T01:21:02.869Z,15.55
2022-09-15T01:22:44.272Z,15.57
2022-09-15T01:24:35.026Z,15.57
2022-09-15T01:26:57.416Z,15.59
2022-09-15T01:28:51.362Z,15.61
2022-09-15T01:30:27.025Z,15.60
2022-09-15T01:32:24.430Z,15.56
2022-09-15T01:34:03.598Z,15.52
2022-09-15T01:35:51.958Z,15.47
2022-09-15T01:37:33.964Z,15.42
2022-09-15T01:39:15.185Z,15.34
2022-09-15T01:40:54.234Z,15.35
2022-09-15T01:42:28.238Z,15.29
2022-09-15T01:44:08.085Z,15.24
2022-09-15T01:45:45.981Z,15.20
2022-09-15T01:47:21.755Z,15.14
2022-09-15T01:48:57.349Z,15.09
2022-09-15T01:50:36.077Z,15.08
2022-09-15T01:52:08.716Z,15.11
2022-09-15T01:53:42.539Z,15.10
2022-09-15T01:55:21.323Z,15.08
2022-09-15T01:56:54.460Z,15.07
2022-09-15T01:58:27.241Z,15.09
2022-09-15T02:00:01.236Z,15.12
2022-09-15T02:01:43.850Z,15.15
2022-09-15T02:03:22.689Z,15.23
2022-09-15T02:05:01.527Z,15.25
2022-09-15T02:06:45.168Z,15.29
2022-09-15T02:08:25.556Z,15.30
2022-09-15T02:10:03.982Z,15.30
2022-09-15T02:11:42.655Z,15.28
2022-09-15T02:13:19.112Z,15.28
2022-09-15T02:14:58.589Z,15.30
2022-09-15T02:16:36.133Z,15.32
2022-09-15T02:18:14.234Z,15.28
2022-09-15T02:19:52.241Z,15.29
2022-09-15T02:21:31.697Z,15.20
2022-09-15T02:23:10.869Z,15.15
2022-09-15T02:24:49.543Z,15.14
2022-09-15T02:26:28.031Z,15.12
2022-09-15T02:28:05.911Z,15.09
2022-09-15T02:29:41.214Z,15.10
2022-09-15T02:31:18.030Z,15.14
2022-09-15T02:32:57.397Z,15.15
2022-09-15T02:34:35.656Z,15.16
2022-09-15T02:36:11.053Z,15.13
2022-09-15T02:37:44.757Z,15.13
2022-09-15T02:39:20.554Z,15.16
2022-09-15T02:40:53.751Z,15.20
2022-09-15T02:42:28.403Z,15.18
2022-09-15T02:44:01.525Z,15.16
2022-09-15T02:45:34.795Z,15.16
2022-09-15T02:47:08.509Z,15.12
2022-09-15T02:48:42.247Z,15.10
2022-09-15T02:50:15.752Z,15.09
2022-09-15T02:51:49.066Z,15.08
2022-09-15T02:53:22.251Z,15.11
2022-09-15T02:54:55.546Z,15.13
2022-09-15T03:28:32.473Z,14.36
2022-09-15T03:30:08.153Z,14.27
2022-09-15T03:31:41.371Z,14.24
2022-09-15T03:33:14.608Z,14.26
2022-09-15T03:34:47.983Z,14.32
2022-09-15T03:36:21.217Z,14.36
2022-09-15T03:37:54.346Z,14.41
2022-09-15T03:39:26.896Z,14.45
2022-09-15T03:41:02.400Z,14.49
2022-09-15T03:42:35.573Z,14.53
2022-09-15T03:44:10.151Z,14.55
2022-09-15T03:45:42.304Z,14.57
2022-09-15T03:47:15.861Z,14.55
2022-09-15T03:48:49.008Z,14.54
2022-09-15T03:50:22.185Z,14.55
2022-09-15T03:51:54.896Z,14.57
2022-09-15T03:53:28.478Z,14.58
2022-09-15T03:55:00.632Z,14.56
2022-09-15T03:56:34.588Z,14.60
2022-09-15T03:58:06.749Z,14.60
2022-09-15T03:59:41.633Z,14.58
2022-09-15T04:01:13.815Z,14.59
2022-09-15T04:02:47.138Z,14.58
2022-09-15T04:04:20.282Z,14.61
2022-09-15T04:05:53.848Z,14.64
2022-09-15T04:07:27.144Z,14.65
2022-09-15T04:09:01.257Z,14.64
2022-09-15T04:10:35.150Z,14.61
2022-09-15T04:12:08.814Z,14.67
2022-09-15T04:13:42.206Z,14.70
2022-09-15T04:15:16.736Z,14.72
2022-09-15T04:16:49.834Z,14.78
2022-09-15T04:18:22.110Z,14.70
2022-09-15T04:19:55.683Z,14.75
2022-09-15T04:21:29.166Z,14.71
2022-09-15T04:23:02.318Z,14.72
2022-09-15T04:24:36.344Z,14.69
2022-09-15T04:26:13.184Z,14.63
2022-09-15T04:27:46.355Z,14.54
2022-09-15T04:29:18.862Z,14.59
2022-09-15T04:30:54.098Z,14.65
2022-09-15T04:32:27.414Z,14.70
2022-09-15T04:34:00.619Z,14.83
2022-09-15T04:35:33.851Z,14.88
2022-09-15T04:37:07.638Z,14.85
2022-09-15T04:38:40.800Z,14.75
2022-09-15T04:40:13.937Z,14.65
2022-09-15T04:41:47.122Z,14.63
2022-09-15T04:43:19.393Z,14.72
2022-09-15T04:44:52.582Z,14.80
2022-09-15T04:46:27.277Z,14.80
2022-09-15T04:48:01.926Z,14.85
2022-09-15T04:49:35.422Z,14.88
2022-09-15T04:51:12.723Z,14.91
2022-09-15T04:52:45.867Z,14.96
2022-09-15T04:54:19.007Z,15.08
2022-09-15T04:55:53.110Z,15.21
2022-09-15T04:57:26.873Z,15.43
2022-09-15T04:59:04.189Z,15.58
2022-09-15T05:00:43.013Z,15.73
2022-09-15T05:02:17.767Z,15.90
2022-09-15T05:03:51.478Z,15.99
2022-09-15T05:05:26.539Z,16.18
2022-09-15T05:06:58.711Z,16.37
2022-09-15T05:08:31.931Z,16.61
2022-09-15T05:10:05.662Z,16.83
2022-09-15T05:11:39.037Z,17.12
2022-09-15T05:13:12.218Z,17.36
2022-09-15T05:14:45.399Z,17.53
2022-09-15T05:16:20.447Z,17.89
2022-09-15T05:17:55.064Z,18.24
2022-09-15T05:19:28.200Z,18.47
2022-09-15T05:21:02.112Z,18.59
2022-09-15T05:22:39.547Z,18.77
2022-09-15T05:24:14.821Z,18.97
2022-09-15T05:25:56.369Z,19.29
2022-09-15T05:27:32.924Z,19.57
2022-09-15T05:29:06.321Z,19.95
2022-09-15T05:30:44.202Z,20.22
2022-09-15T05:32:17.834Z,20.41
2022-09-15T05:33:53.401Z,20.54
2022-09-15T05:35:26.598Z,20.65
2022-09-15T05:36:59.725Z,20.81
2022-09-15T05:38:33.804Z,21.08
2022-09-15T05:40:08.682Z,21.38
2022-09-15T05:41:42.189Z,21.68
2022-09-15T05:43:15.898Z,22.00
2022-09-15T05:44:49.130Z,22.20
2022-09-15T05:47:55.950Z,22.49
2022-09-15T05:49:31.709Z,22.76
2022-09-15T05:51:05.394Z,22.94
2022-09-15T05:52:38.968Z,23.26
2022-09-15T05:54:12.174Z,23.48
2022-09-15T05:55:45.343Z,23.81
2022-09-15T05:57:18.542Z,24.17
2022-09-15T05:58:51.982Z,24.46
2022-09-15T06:00:25.191Z,24.78
2022-09-15T06:01:58.362Z,24.93
2022-09-15T06:03:31.173Z,24.83
2022-09-15T06:05:06.821Z,25.12
2022-09-15T06:06:40.000Z,25.34
2022-09-15T06:08:12.788Z,25.42
2022-09-15T06:09:46.004Z,25.61
2022-09-15T06:11:21.257Z,25.79
2022-09-15T06:12:55.016Z,26.02
2022-09-15T06:14:28.221Z,26.27
2022-09-15T06:16:07.006Z,26.23
2022-09-15T06:17:40.840Z,26.28
2022-09-15T06:19:14.162Z,26.48
2022-09-15T06:20:48.710Z,26.20
2022-09-15T06:22:21.894Z,26.24
2022-09-15T06:23:55.727Z,26.36
2022-09-15T06:25:28.844Z,26.45
2022-09-15T06:27:02.049Z,26.74
2022-09-15T06:28:34.209Z,26.80
2022-09-15T06:30:08.680Z,26.72
2022-09-15T06:31:41.944Z,26.94
2022-09-15T06:33:15.128Z,27.03
2022-09-15T06:34:48.307Z,27.39
2022-09-15T06:36:25.208Z,27.71
2022-09-15T06:37:58.443Z,27.93
2022-09-15T06:39:31.576Z,27.82
2022-09-15T06:41:05.175Z,27.94
2022-09-15T06:42:38.583Z,28.17
2022-09-15T06:44:12.645Z,28.21
2022-09-15T06:45:45.854Z,28.30
2022-09-15T06:47:19.042Z,28.18
2022-09-15T06:48:53.692Z,28.30
2022-09-15T06:50:27.037Z,28.60
2022-09-15T06:52:02.991Z,28.66
2022-09-15T06:53:38.252Z,28.67
2022-09-15T06:55:11.615Z,28.74
2022-09-15T06:56:45.580Z,28.92
2022-09-15T06:58:18.706Z,28.93
2022-09-15T06:59:51.865Z,29.07
2022-09-15T07:01:28.598Z,29.19
2022-09-15T07:03:01.934Z,29.28
2022-09-15T07:04:36.978Z,29.50
2022-09-15T07:06:12.175Z,29.75
2022-09-15T07:07:46.966Z,30.02
2022-09-15T07:09:20.280Z,30.09
2022-09-15T07:10:53.494Z,30.16
2022-09-15T07:12:26.983Z,30.23
2022-09-15T07:14:00.601Z,30.47
2022-09-15T07:15:33.904Z,30.18
2022-09-15T07:17:07.204Z,30.06
2022-09-15T07:18:43.217Z,30.13
2022-09-15T07:20:17.420Z,30.18
2022-09-15T07:21:52.805Z,30.38
2022-09-15T07:23:27.903Z,30.58
2022-09-15T07:25:01.049Z,30.72
2022-09-15T07:26:34.648Z,30.72
2022-09-15T07:28:07.823Z,30.78
2022-09-15T07:29:41.104Z,31.03
2022-09-15T07:31:17.201Z,31.18
2022-09-15T07:32:50.672Z,31.09
2022-09-15T07:34:23.784Z,31.05
2022-09-15T07:35:57.005Z,31.00
2022-09-15T07:37:30.167Z,31.22
2022-09-15T07:39:05.837Z,31.57
2022-09-15T07:40:39.570Z,31.51
2022-09-15T07:42:12.721Z,31.50
2022-09-15T07:43:47.571Z,31.73
2022-09-15T07:45:21.134Z,32.17
2022-09-15T07:46:54.272Z,32.37
2022-09-15T07:48:27.740Z,32.26
2022-09-15T07:50:00.902Z,32.56
2022-09-15T07:51:34.157Z,32.55
2022-09-15T07:53:07.401Z,32.74
2022-09-15T07:54:41.901Z,32.85
2022-09-15T07:56:16.179Z,33.02
2022-09-15T07:57:48.750Z,33.14
2022-09-15T07:59:21.896Z,33.33
2022-09-15T08:00:55.119Z,32.72
2022-09-15T08:02:28.321Z,32.93
2022-09-15T08:04:01.957Z,33.28
2022-09-15T08:05:39.444Z,33.55
2022-09-15T08:07:14.500Z,33.73
2022-09-15T08:08:47.742Z,33.35
2022-09-15T08:10:22.653Z,33.59
2022-09-15T08:11:55.743Z,33.63
2022-09-15T08:13:30.154Z,33.74
2022-09-15T08:15:03.614Z,33.98
2022-09-15T08:16:37.775Z,34.20
2022-09-15T08:18:10.961Z,34.41
2022-09-15T08:19:44.111Z,34.74
2022-09-15T08:21:20.282Z,35.01
2022-09-15T08:22:54.556Z,35.31
2022-09-15T08:24:27.934Z,35.55
2022-09-15T08:26:02.475Z,35.70
2022-09-15T08:27:35.917Z,35.71
2022-09-15T08:29:09.491Z,35.79
2022-09-15T08:30:42.569Z,35.84
2022-09-15T08:32:15.999Z,36.00
2022-09-15T08:33:50.494Z,36.04
2022-09-15T08:35:23.924Z,35.95
2022-09-15T08:36:57.151Z,35.93
2022-09-15T08:38:30.445Z,35.82
2022-09-15T08:40:04.340Z,35.87
2022-09-15T08:41:41.525Z,35.97
2022-09-15T08:43:19.393Z,35.93
2022-09-15T08:44:58.190Z,36.00
2022-09-15T08:46:36.425Z,36.10
2022-09-15T08:48:15.943Z,36.16
2022-09-15T08:49:59.809Z,35.97
2022-09-15T08:51:39.638Z,35.99
2022-09-15T08:53:16.485Z,36.09
2022-09-15T08:54:52.392Z,36.33
2022-09-15T08:56:25.911Z,36.34
2022-09-15T08:58:00.657Z,36.14
2022-09-15T08:59:36.789Z,36.06
2022-09-15T09:01:30.334Z,35.94
2022-09-15T09:03:27.748Z,35.71
2022-09-15T09:05:09.917Z,35.68
2022-09-15T09:06:52.112Z,35.84
2022-09-15T09:08:45.177Z,35.91
2022-09-15T09:10:26.286Z,35.92
2022-09-15T09:12:22.072Z,35.92
2022-09-15T09:14:04.717Z,35.99
2022-09-15T09:15:49.509Z,36.18
2022-09-15T09:17:36.418Z,36.24
2022-09-15T09:19:36.580Z,36.27
2022-09-15T09:21:17.057Z,36.27
2022-09-15T09:22:54.293Z,36.28
2022-09-15T09:24:37.230Z,36.00
2022-09-15T09:26:13.569Z,35.79
2022-09-15T09:27:48.268Z,35.54
2022-09-15T09:29:31.811Z,35.35
2022-09-15T09:31:08.490Z,35.15
2022-09-15T09:32:46.169Z,34.96
2022-09-15T09:34:28.934Z,34.88
2022-09-15T09:36:02.468Z,34.82
2022-09-15T09:37:35.692Z,34.62
2022-09-15T09:39:12.990Z,34.54
2022-09-15T09:40:47.000Z,34.43
2022-09-15T09:42:20.666Z,34.21
2022-09-15T09:43:55.863Z,34.19
2022-09-15T09:45:30.510Z,34.07
2022-09-15T09:47:04.350Z,34.03
2022-09-15T09:48:37.783Z,33.89
2022-09-15T09:50:34.173Z,33.96
2022-09-15T09:52:07.601Z,34.03
2022-09-15T09:53:42.508Z,34.08
2022-09-15T09:55:23.139Z,34.11
2022-09-15T09:56:58.071Z,34.16
2022-09-15T09:58:31.452Z,34.14
2022-09-15T10:00:05.127Z,33.99
2022-09-15T10:01:41.357Z,34.08
2022-09-15T10:03:18.235Z,34.15
2022-09-15T10:04:53.934Z,34.25
2022-09-15T10:06:31.970Z,34.26
2022-09-15T10:08:05.410Z,34.21
2022-09-15T10:09:39.637Z,34.21
2022-09-15T10:11:13.073Z,34.15
2022-09-15T10:12:46.275Z,34.20
2022-09-15T10:14:23.269Z,34.20
2022-09-15T10:15:59.531Z,34.31
2022-09-15T10:17:46.817Z,34.35
2022-09-15T10:19:20.168Z,34.37
2022-09-15T10:20:53.345Z,34.38
2022-09-15T10:22:31.803Z,34.31
2022-09-15T10:24:26.250Z,34.30
2022-09-15T10:26:21.161Z,34.27
2022-09-15T10:28:04.689Z,34.26
2022-09-15T10:29:41.084Z,34.25
2022-09-15T10:31:28.661Z,34.34
2022-09-15T10:33:20.310Z,34.45
2022-09-15T10:35:06.149Z,34.58
2022-09-15T10:36:39.388Z,34.56
2022-09-15T10:38:15.863Z,34.58
2022-09-15T10:39:54.212Z,34.55
2022-09-15T10:41:30.247Z,34.54
2022-09-15T10:43:21.024Z,34.44
2022-09-15T10:45:08.256Z,34.54
2022-09-15T10:46:52.001Z,34.55
2022-09-15T10:48:37.606Z,34.53
2022-09-15T10:50:17.422Z,34.53
2022-09-15T10:51:58.214Z,34.44
2022-09-15T10:53:44.992Z,34.47
2022-09-15T10:55:48.867Z,34.56
2022-09-15T10:57:40.362Z,34.46
2022-09-15T10:59:29.637Z,34.58
2022-09-15T11:01:18.785Z,34.36
2022-09-15T11:03:14.675Z,34.38
2022-09-15T11:05:16.046Z,34.42
2022-09-15T11:06:59.357Z,34.56
2022-09-15T11:09:01.155Z,34.64
2022-09-15T11:10:42.637Z,34.74
2022-09-15T11:12:31.474Z,34.78
2022-09-15T11:14:25.284Z,34.80
2022-09-15T11:16:10.816Z,34.77
2022-09-15T11:18:01.163Z,34.85
2022-09-15T11:19:50.794Z,34.88
2022-09-15T11:21:30.947Z,34.90
2022-09-15T11:23:12.415Z,34.86
2022-09-15T11:24:49.796Z,34.94
2022-09-15T11:26:28.179Z,35.00
2022-09-15T11:28:06.705Z,34.85
2022-09-15T11:30:01.237Z,34.80
2022-09-15T11:31:40.340Z,34.88
2022-09-15T11:33:19.709Z,34.88
2022-09-15T11:34:57.417Z,34.93
2022-09-15T11:36:39.307Z,35.00
2022-09-15T11:38:23.036Z,35.08
2022-09-15T11:40:01.702Z,35.10
2022-09-15T11:41:40.706Z,35.12
2022-09-15T11:43:19.198Z,35.12
2022-09-15T11:44:52.471Z,35.05
2022-09-15T11:46:31.807Z,35.05
2022-09-15T11:48:13.498Z,35.11
2022-09-15T11:49:52.665Z,35.17
2022-09-15T11:51:29.560Z,35.17
2022-09-15T11:53:10.953Z,35.18
2022-09-15T11:54:47.805Z,35.19
2022-09-15T11:56:27.711Z,35.15
2022-09-15T11:58:17.331Z,35.07
2022-09-15T11:59:59.096Z,35.08
2022-09-15T12:01:35.730Z,35.03
2022-09-15T12:03:19.484Z,34.99
2022-09-15T12:05:05.819Z,35.00
2022-09-15T12:06:46.048Z,34.97
2022-09-15T12:08:28.587Z,34.90
2022-09-15T12:10:07.921Z,34.82
2022-09-15T12:11:45.327Z,34.81
2022-09-15T12:13:20.767Z,34.71
2022-09-15T12:14:54.632Z,34.76
2022-09-15T12:16:29.290Z,34.66
2022-09-15T12:18:34.417Z,34.63
2022-09-15T12:20:11.920Z,34.62
2022-09-15T12:21:52.075Z,34.63
2022-09-15T12:23:33.913Z,34.67
2022-09-15T12:25:16.202Z,34.77
2022-09-15T12:26:49.478Z,34.71
2022-09-15T12:28:39.970Z,34.66
2022-09-15T12:30:41.275Z,34.67
2022-09-15T12:32:23.350Z,34.74
2022-09-15T12:33:58.620Z,34.78
2022-09-15T12:35:33.259Z,34.77
2022-09-15T12:37:12.794Z,34.83
2022-09-15T12:38:50.594Z,34.89
2022-09-15T12:40:34.543Z,34.93
2022-09-15T12:42:14.944Z,35.03
2022-09-15T12:43:54.487Z,35.08
2022-09-15T12:45:30.643Z,35.17
2022-09-15T12:47:07.079Z,35.13
2022-09-15T12:48:47.380Z,35.11
2022-09-15T12:50:28.920Z,35.21
2022-09-15T12:52:06.564Z,35.17
2022-09-15T12:53:51.365Z,35.13
2022-09-15T12:55:28.456Z,35.15
2022-09-15T12:57:02.531Z,35.16
2022-09-15T12:58:38.176Z,35.17
2022-09-15T13:00:28.942Z,35.13
2022-09-15T13:02:02.705Z,35.12
2022-09-15T13:04:08.507Z,35.08
2022-09-15T13:06:18.434Z,35.03
2022-09-15T13:07:57.651Z,34.98
2022-09-15T13:09:45.164Z,35.06
2022-09-15T13:11:23.639Z,35.06
2022-09-15T13:13:07.144Z,35.06
2022-09-15T13:14:48.302Z,35.03
2022-09-15T13:16:28.758Z,35.02
2022-09-15T13:18:06.919Z,34.99
2022-09-15T13:19:46.610Z,35.01
2022-09-15T13:21:24.105Z,34.99
2022-09-15T13:22:58.610Z,34.94
2022-09-15T13:24:43.775Z,34.83
2022-09-15T13:26:24.144Z,34.83
2022-09-15T13:28:00.679Z,34.82
2022-09-15T13:29:36.974Z,34.84
2022-09-15T13:31:22.269Z,34.85
2022-09-15T13:33:02.847Z,34.86
2022-09-15T13:35:04.317Z,34.80
2022-09-15T13:39:24.335Z,34.76
2022-09-15T13:41:22.382Z,34.80
2022-09-15T13:43:12.976Z,34.80
2022-09-15T13:45:23.203Z,34.84
2022-09-15T13:47:14.177Z,34.86
2022-09-15T13:49:03.879Z,34.84
2022-09-15T13:50:41.010Z,34.88
2022-09-15T13:52:25.742Z,34.89
2022-09-15T13:54:01.459Z,34.91
2022-09-15T13:55:38.675Z,34.89
2022-09-15T13:57:13.774Z,34.87
2022-09-15T13:58:58.566Z,34.89
2022-09-15T14:00:46.252Z,34.90
2022-09-15T14:02:21.560Z,34.84
2022-09-15T14:03:58.449Z,34.78
2022-09-15T14:05:33.416Z,34.75
2022-09-15T14:07:07.190Z,34.75
2022-09-15T14:08:43.029Z,34.75
2022-09-15T14:10:24.097Z,34.71
2022-09-15T14:12:00.682Z,34.69
2022-09-15T14:13:37.522Z,34.64
2022-09-15T14:15:16.073Z,34.61
2022-09-15T14:16:51.110Z,34.58
2022-09-15T14:18:23.299Z,34.56
2022-09-15T14:19:58.743Z,34.52
2022-09-15T14:21:33.734Z,34.46
2022-09-15T14:23:17.222Z,34.45
2022-09-15T14:24:51.908Z,34.44
2022-09-15T14:26:27.706Z,34.38
2022-09-15T14:28:00.929Z,34.36
2022-09-15T14:29:41.045Z,34.37
2022-09-15T14:31:14.325Z,34.40
2022-09-15T14:32:52.282Z,34.42
2022-09-15T14:34:27.032Z,34.42
2022-09-15T14:36:00.442Z,34.42
2022-09-15T14:37:34.693Z,34.43
2022-09-15T14:39:19.130Z,34.44
2022-09-15T14:40:54.642Z,34.45
2022-09-15T14:42:31.216Z,34.46
2022-09-15T14:45:52.947Z,34.50
2022-09-15T14:46:13.263Z,34.46
2022-09-15T14:47:46.884Z,34.41
2022-09-15T14:49:20.376Z,34.34
2022-09-15T14:51:02.424Z,34.28
2022-09-15T14:52:40.355Z,34.22
2022-09-15T14:54:18.977Z,34.20
2022-09-15T14:55:56.593Z,34.17
2022-09-15T14:57:33.066Z,34.15
2022-09-15T14:59:10.390Z,34.11
2022-09-15T15:00:54.487Z,34.07
2022-09-15T15:02:41.315Z,34.08
2022-09-15T15:04:22.781Z,34.04
2022-09-15T15:06:02.734Z,33.99
2022-09-15T15:07:41.819Z,33.95
2022-09-15T15:09:22.733Z,33.95
2022-09-15T15:10:56.215Z,33.94
2022-09-15T15:12:34.986Z,33.91
2022-09-15T15:14:11.486Z,33.90
2022-09-15T15:15:46.263Z,33.86
2022-09-15T15:17:36.836Z,33.81
2022-09-15T15:19:38.462Z,33.81
2022-09-15T15:21:37.883Z,33.77
2022-09-15T15:23:15.529Z,33.74
2022-09-15T15:24:50.964Z,33.73
2022-09-15T15:26:36.114Z,33.65
2022-09-15T15:28:31.516Z,33.61
2022-09-15T15:30:40.250Z,33.54
2022-09-15T15:32:15.803Z,33.49
2022-09-15T15:33:53.186Z,33.46
2022-09-15T15:35:27.588Z,33.41
2022-09-15T15:37:04.337Z,33.36
2022-09-15T15:38:46.356Z,33.31
2022-09-15T15:40:23.267Z,33.29
2022-09-15T15:42:03.646Z,33.26
2022-09-15T15:43:37.635Z,33.22
2022-09-15T15:45:23.936Z,33.22
2022-09-15T15:47:01.644Z,33.14
2022-09-15T15:48:38.205Z,33.12
2022-09-15T15:50:15.371Z,33.08
2022-09-15T15:51:48.738Z,33.05
2022-09-15T15:53:21.915Z,32.94
2022-09-15T15:54:55.066Z,32.90
2022-09-15T15:56:28.258Z,32.84
2022-09-15T15:58:01.658Z,32.71
2022-09-15T15:59:34.802Z,32.67
2022-09-15T16:01:13.001Z,32.63
2022-09-15T16:02:45.680Z,32.55
2022-09-15T16:04:18.986Z,32.46
2022-09-15T16:05:55.736Z,32.39
2022-09-15T16:07:33.140Z,32.28
2022-09-15T16:09:07.234Z,32.18
2022-09-15T16:10:43.998Z,32.07
2022-09-15T16:12:17.632Z,31.92
2022-09-15T16:13:50.944Z,31.83
2022-09-15T16:15:24.158Z,31.74
2022-09-15T16:17:00.547Z,31.64
2022-09-15T16:18:33.659Z,31.63
2022-09-15T16:20:07.866Z,31.52
2022-09-15T16:21:43.448Z,31.41
2022-09-15T16:23:18.840Z,31.35
2022-09-15T16:24:51.989Z,31.30
2022-09-15T16:26:26.454Z,31.24
2022-09-15T16:27:59.957Z,31.20
2022-09-15T16:29:36.464Z,31.15
2022-09-15T16:31:13.290Z,31.03
2022-09-15T16:32:46.458Z,30.97
2022-09-15T16:34:19.717Z,30.89
2022-09-15T16:36:03.823Z,30.83
2022-09-15T16:37:38.412Z,30.75
2022-09-15T16:39:11.628Z,30.68
2022-09-15T16:40:44.941Z,30.58
2022-09-15T16:42:19.020Z,30.47
2022-09-15T16:43:53.290Z,30.35
2022-09-15T16:45:35.139Z,30.20
2022-09-15T16:47:11.266Z,30.08
2022-09-15T16:48:47.250Z,29.98
2022-09-15T16:50:20.410Z,29.84
2022-09-15T16:51:53.608Z,29.74
2022-09-15T16:53:30.142Z,29.70
2022-09-15T16:55:03.607Z,29.65
2022-09-15T16:56:36.792Z,29.55
2022-09-15T16:58:10.090Z,29.46
2022-09-15T16:59:43.172Z,29.30
2022-09-15T17:01:19.427Z,29.20
2022-09-15T17:02:52.584Z,29.08
2022-09-15T17:04:25.915Z,28.89
2022-09-15T17:06:00.614Z,28.75
2022-09-15T17:07:33.914Z,28.65
2022-09-15T17:09:08.470Z,28.52
2022-09-15T17:10:42.872Z,28.49
2022-09-15T17:12:15.991Z,28.44
2022-09-15T17:13:49.791Z,28.42
2022-09-15T17:15:29.028Z,28.38
2022-09-15T17:17:02.180Z,28.32
2022-09-15T17:18:35.383Z,28.23
2022-09-15T17:20:08.368Z,28.17
2022-09-15T17:21:41.539Z,28.03
2022-09-15T17:23:21.232Z,27.96
2022-09-15T17:24:55.722Z,27.86
2022-09-15T17:26:31.500Z,27.79
2022-09-15T17:28:04.855Z,27.71
2022-09-15T17:29:37.220Z,27.65
2022-09-15T17:31:15.674Z,27.59
2022-09-15T17:32:49.415Z,27.51
2022-09-15T17:34:22.585Z,27.48
2022-09-15T17:35:55.189Z,27.45
2022-09-15T17:37:28.366Z,27.37
2022-09-15T17:39:01.685Z,27.34
2022-09-15T17:40:36.511Z,27.33
2022-09-15T17:42:10.590Z,27.30
2022-09-15T17:43:44.020Z,27.21
2022-09-15T17:45:20.753Z,27.17
2022-09-15T17:46:53.966Z,27.17
2022-09-15T17:48:27.350Z,27.14
2022-09-15T17:50:07.889Z,27.11
2022-09-15T17:51:41.226Z,27.03
2022-09-15T17:53:16.404Z,27.00
2022-09-15T17:54:48.823Z,26.89
2022-09-15T17:56:23.403Z,26.83
2022-09-15T17:57:58.291Z,26.74
2022-09-15T17:59:31.376Z,26.69
2022-09-15T18:01:05.239Z,26.66
2022-09-15T18:02:39.389Z,26.63
2022-09-15T18:04:13.063Z,26.55
2022-09-15T18:05:46.537Z,26.34
2022-09-15T18:07:19.747Z,26.17
2022-09-15T18:08:52.926Z,26.04
2022-09-15T18:10:28.360Z,26.00
2022-09-15T18:12:03.506Z,25.95
2022-09-15T18:13:37.989Z,25.83
2022-09-15T18:15:15.823Z,25.67
2022-09-15T18:16:49.294Z,25.67
2022-09-15T18:18:24.204Z,25.65
2022-09-15T18:19:57.588Z,25.62
2022-09-15T18:21:30.999Z,25.56
2022-09-15T18:23:04.367Z,25.49
2022-09-15T18:24:37.475Z,25.43
2022-09-15T18:26:10.927Z,25.42
2022-09-15T18:27:45.643Z,25.40
2022-09-15T18:29:19.138Z,25.38
2022-09-15T18:30:52.403Z,25.36
2022-09-15T18:32:25.006Z,25.30
2022-09-15T18:33:58.132Z,25.27
2022-09-15T18:35:31.945Z,25.28
2022-09-15T18:37:05.146Z,25.21
2022-09-15T18:38:38.810Z,25.15
2022-09-15T18:40:15.054Z,25.11
2022-09-15T18:41:50.115Z,25.13
2022-09-15T18:43:26.664Z,25.12
2022-09-15T18:45:00.029Z,25.06
2022-09-15T18:46:33.176Z,25.04
2022-09-15T18:48:11.903Z,25.02
2022-09-15T18:49:46.138Z,24.98
2022-09-15T18:51:24.021Z,24.92
2022-09-15T18:53:02.203Z,24.85
2022-09-15T18:54:37.584Z,24.83
2022-09-15T18:56:11.618Z,24.84
2022-09-15T18:57:45.924Z,24.84
2022-09-15T18:59:20.551Z,24.77
2022-09-15T19:00:53.731Z,24.68
2022-09-15T19:02:27.342Z,24.60
2022-09-15T19:04:00.624Z,24.47
2022-09-15T19:05:34.525Z,24.29
2022-09-15T19:07:08.563Z,24.27
2022-09-15T19:08:41.672Z,24.24
2022-09-15T19:10:16.310Z,24.23
2022-09-15T19:11:49.464Z,24.21
2022-09-15T19:13:22.889Z,24.13
2022-09-15T19:14:57.399Z,24.15
2022-09-15T19:16:53.874Z,24.15
2022-09-15T19:18:26.393Z,24.13
2022-09-15T19:20:00.403Z,24.09
2022-09-15T19:21:33.735Z,24.09
2022-09-15T19:23:06.926Z,24.05
2022-09-15T19:24:40.424Z,24.05
2022-09-15T19:26:16.926Z,24.06
2022-09-15T19:27:50.126Z,24.14
2022-09-15T19:29:23.324Z,24.16
2022-09-15T19:30:58.405Z,24.17
2022-09-15T19:32:34.213Z,24.12
2022-09-15T19:34:07.362Z,24.06
2022-09-15T19:35:42.913Z,24.05
2022-09-15T19:37:18.958Z,24.05
2022-09-15T19:38:52.259Z,24.07
2022-09-15T19:40:25.483Z,24.11
2022-09-15T19:41:58.722Z,24.11
2022-09-15T19:43:32.411Z,24.15
2022-09-15T19:45:06.128Z,24.10
2022-09-15T19:46:40.736Z,24.13
2022-09-15T19:48:13.844Z,24.15
2022-09-15T19:49:47.455Z,24.18
2022-09-15T19:51:20.117Z,24.14
2022-09-15T19:52:55.239Z,24.09
2022-09-15T19:54:32.282Z,24.03
2022-09-15T19:56:06.293Z,23.95
2022-09-15T19:57:40.801Z,23.88
2022-09-15T19:59:13.980Z,23.79
2022-09-15T20:00:53.555Z,23.69
2022-09-15T20:02:28.371Z,23.62
2022-09-15T20:04:02.726Z,23.56
2022-09-15T20:05:35.822Z,23.57
2022-09-15T20:07:09.342Z,23.60
2022-09-15T20:08:45.620Z,23.62
2022-09-15T20:10:18.938Z,23.63
2022-09-15T20:11:52.100Z,23.63
2022-09-15T20:13:24.294Z,23.58
2022-09-15T20:14:57.749Z,23.58
2022-09-15T20:16:31.421Z,23.59
2022-09-15T20:18:06.564Z,23.59
2022-09-15T20:19:39.712Z,23.56
2022-09-15T20:21:26.850Z,23.56
2022-09-15T20:23:08.449Z,23.55
2022-09-15T20:24:41.698Z,23.55
2022-09-15T20:26:17.427Z,23.55
2022-09-15T20:27:52.563Z,23.54
2022-09-15T20:29:25.719Z,23.54
2022-09-15T20:31:04.093Z,23.51
2022-09-15T20:32:37.451Z,23.53
2022-09-15T20:34:12.083Z,23.52
2022-09-15T20:35:45.228Z,23.50
2022-09-15T20:37:18.479Z,23.51
2022-09-15T20:38:53.563Z,23.49
2022-09-15T20:40:27.608Z,23.45
2022-09-15T20:42:00.766Z,23.42
2022-09-15T20:43:36.573Z,23.42
2022-09-15T20:45:11.011Z,23.36
2022-09-15T20:46:44.378Z,23.30
2022-09-15T20:48:17.515Z,23.25
2022-09-15T20:49:52.090Z,23.20
2022-09-15T20:51:28.077Z,23.17
2022-09-15T20:53:01.239Z,23.12
2022-09-15T20:54:34.588Z,23.07
2022-09-15T20:56:08.680Z,22.98
2022-09-15T20:57:42.222Z,22.90
2022-09-15T20:59:15.904Z,22.84
2022-09-15T21:00:49.085Z,22.82
2022-09-15T21:02:22.381Z,22.79
2022-09-15T21:03:56.253Z,22.76
2022-09-15T21:05:29.798Z,22.74
2022-09-15T21:07:02.948Z,22.69
2022-09-15T21:08:36.931Z,22.64
2022-09-15T21:10:10.907Z,22.54
2022-09-15T21:11:44.403Z,22.44
2022-09-15T21:13:19.186Z,22.36
2022-09-15T21:14:52.436Z,22.30
2022-09-15T21:16:27.317Z,22.26
2022-09-15T21:17:59.587Z,22.25
2022-09-15T21:19:32.686Z,22.24
2022-09-15T21:21:09.413Z,22.24
2022-09-15T21:22:42.792Z,22.23
2022-09-15T21:24:16.054Z,22.19
2022-09-15T21:26:01.665Z,22.17